Jackson Junction, Iowa
Current Conditions -  °F | °C
As of 1:55 AM on Monday 22 Dec 2014 (Local Time) from KDEH Reporting Station
Haze Haze  
Wind Chill: 28°   Ceiling: 700
Heat Index: 36°   Visibility: 4mi
Dew Point: 34°   Wind: 10mph
Humidity: 93%   Direction: 150°SSE
Pressure: 29.78"   Gusts: 18mph
Location:  43.0382°N, 92.0219°W
Report Text: KDEH 220755Z AUTO 15009G16KT 4SM BR OVC007 02/01 A2978 RMK AO2
Loading
Personal Weather Stations






























Interactive Weather Map New forecast layout! Learn more

10-Day Weather Forecast

Advertisements
Track Severe Weather on mobile